Flight Track Log - Related Links

Times and Time Zones

All times are in EDT time to prevent confusion due to time zone crossing. See the BER6706 flight status page for this flight to view local times or setup timezone preferences in your user account.

Time Position Orientation Groundspeed Altitude Reporting Facility
EDT Latitude Longitude Course Direction KTS MPH feet Rate Location/Type
Tue 01:57:00 AM 50.5723 10.8137 351° North  Level Estimated
Tue 01:58:00 AM 50.6490 10.7943 351° North  Level Estimated
Tue 01:59:00 AM 50.7256 10.7749 351° North  Level Estimated
Tue 02:00:00 AM 50.8023 10.7555 351° North  Level Estimated
Tue 02:01:00 AM 50.8789 10.7359 351° North  Level Estimated
Tue 02:02:00 AM 50.9556 10.7163 351° North  Level Estimated
Tue 02:03:00 AM 51.0322 10.6967 351° North  Level Estimated
Tue 02:04:00 AM 51.1089 10.6769 351° North  Level Estimated
Tue 02:05:00 AM 51.1855 10.6571 351° North  Level Estimated
Tue 02:06:00 AM 51.2622 10.6373 351° North  Level Estimated
Tue 02:07:00 AM 51.3388 10.6173 351° North  Level Estimated
Tue 02:08:00 AM 51.4155 10.5973 351° North  Level Estimated
Tue 02:09:00 AM 51.4921 10.5773 351° North  Level Estimated
Tue 02:10:00 AM 51.5687 10.5571 351° North  Level Estimated
Tue 02:11:00 AM 51.6453 10.5370 351° North  Level Estimated
Tue 02:12:00 AM 51.7220 10.5167 351° North  Level Estimated
Tue 02:13:00 AM 51.7986 10.4964 351° North  Level Estimated
Tue 02:14:00 AM 51.8752 10.4760 351° North  Level Estimated
Tue 02:15:00 AM 51.9518 10.4555 351° North  Level Estimated
Tue 02:16:00 AM 52.0284 10.4349 351° North  Level Estimated
Tue 02:17:00 AM 52.1050 10.4143 351° North  Level Estimated
Tue 02:18:00 AM 52.1816 10.3936 351° North  Level Estimated
Tue 02:19:00 AM 52.2582 10.3729 351° North  Level Estimated
Tue 02:20:00 AM 52.3348 10.3520 351° North  Level Estimated
Tue 02:21:00 AM 52.4114 10.3312 351° North  Level Estimated
Tue 02:22:00 AM 52.4879 10.3102 351° North  Level Estimated
Tue 02:23:00 AM 52.5645 10.2891 351° North  Level Estimated
Tue 02:24:00 AM 52.6411 10.2680 350° North  Level Estimated
Tue 02:25:00 AM 52.7177 10.2468 350° North  Level Estimated
Tue 02:26:00 AM 52.7943 10.2255 350° North  Level Estimated
Tue 02:27:00 AM 52.8708 10.2042 350° North  Level Estimated
Tue 02:28:00 AM 52.9474 10.1828 350° North  Level Estimated
Tue 02:29:00 AM 53.0239 10.1613 350° North  Level Estimated
Tue 02:30:00 AM 53.1005 10.1397 350° North  Level Estimated
Tue 02:31:00 AM 53.1770 10.1181 350° North  Level Estimated
Tue 02:32:00 AM 53.2536 10.0963 350° North  Level Estimated
Tue 02:33:00 AM 53.3301 10.0745 350° North  Level Estimated
Tue 02:34:00 AM 53.4067 10.0527 350° North  Level Estimated
Tue 02:35:00 AM 53.4832 10.0307 350° North  Level Estimated
Tue 02:36:00 AM 53.5597 10.0087 350° North  Level Estimated
Tue 02:37:00 AM 53.6304 9.9882 350° North  Level Estimated
Tue 02:38:00 AM 53.6304 9.9882 230° Southwest  Level Estimated
Tue 02:39:00 AM 53.6304 9.9882 230° Southwest  Level Estimated
Tue 02:40:00 AM 53.6304 9.9882 230° Southwest  Level Estimated
Tue 02:41:00 AM 53.6304 9.9882 230° Southwest  Level Estimated
Tue 02:42:00 AM 53.6304 9.9882 230° Southwest  Level Estimated
Tue 02:43:00 AM 53.6304 9.9882 230° Southwest  Level Estimated
Tue 02:44:00 AM 53.6304 9.9882 230° Southwest  Level Estimated
Tue 02:45:00 AM 53.6304 9.9882 230° Southwest  Level Estimated
Tue 02:46:00 AM 53.6304 9.9882 230° Southwest  Level Estimated
Tue 02:47:00 AM 53.6304 9.9882 230° Southwest  Level Estimated
Tue 02:48:00 AM 53.6304 9.9882 230° Southwest  Level Estimated
Tue 02:49:00 AM 53.6304 9.9882 230° Southwest  Level Estimated
Tue 02:50:00 AM 53.6304 9.9882 230° Southwest  Level Estimated
Tue 02:51:00 AM 53.6304 9.9882 230° Southwest  Level Estimated
Tue 02:52:00 AM 53.6304 9.9882 230° Southwest  Level Estimated
Tue 02:53:00 AM 53.6304 9.9882 230° Southwest  Level Estimated

Login

Don't have an account? Register now (free) for customized features, flight alerts, and more!